createdAt,value
2022-12-08T00:00:14.219Z,2.90
2022-12-08T00:03:11.994Z,2.96
2022-12-08T00:06:27.529Z,3.05
2022-12-08T00:20:22.798Z,3.79
2022-12-08T00:23:07.925Z,3.93
2022-12-08T00:26:41.421Z,4.08
2022-12-08T00:29:10.931Z,4.23
2022-12-08T00:31:47.083Z,4.34
2022-12-08T00:38:01.044Z,4.26
2022-12-08T00:40:27.477Z,4.13
2022-12-08T00:47:00.449Z,3.80
2022-12-08T00:49:35.671Z,3.66
2022-12-08T00:56:22.334Z,3.29
2022-12-08T00:59:07.747Z,3.15
2022-12-08T01:01:56.536Z,3.01
2022-12-08T01:04:23.989Z,2.82
2022-12-08T01:11:05.307Z,2.73
2022-12-08T01:13:31.396Z,2.70
2022-12-08T01:16:01.720Z,2.68
2022-12-08T01:18:56.279Z,2.64
2022-12-08T01:21:23.225Z,2.59
2022-12-08T01:24:22.424Z,2.55
2022-12-08T01:27:15.001Z,2.50
2022-12-08T01:29:52.596Z,2.47
2022-12-08T01:32:27.612Z,2.42
2022-12-08T01:35:17.995Z,2.40
2022-12-08T01:37:44.160Z,2.42
2022-12-08T01:40:10.209Z,2.46
2022-12-08T01:42:52.073Z,2.50
2022-12-08T01:53:26.293Z,2.65
2022-12-08T01:59:51.637Z,2.69
2022-12-08T02:00:00.540Z,2.74
2022-12-08T02:06:20.328Z,2.86
2022-12-08T02:23:13.017Z,3.38
2022-12-08T02:26:39.719Z,3.41
2022-12-08T02:29:24.404Z,3.46
2022-12-08T02:32:59.024Z,3.49
2022-12-08T02:36:23.919Z,3.57
2022-12-08T02:39:45.547Z,3.73
2022-12-08T02:45:56.245Z,3.99
2022-12-08T02:48:22.497Z,4.07
2022-12-08T02:50:48.438Z,4.15
2022-12-08T02:55:48.155Z,4.31
2022-12-08T02:58:28.273Z,4.37
2022-12-08T03:01:33.081Z,4.41
2022-12-08T03:04:15.080Z,4.47
2022-12-08T03:07:53.015Z,4.55
2022-12-08T03:11:14.057Z,4.61
2022-12-08T03:14:01.872Z,4.61
2022-12-08T03:16:31.445Z,4.66
2022-12-08T03:19:21.585Z,4.70
2022-12-08T03:25:20.167Z,4.79
2022-12-08T03:27:46.181Z,4.80
2022-12-08T03:30:12.494Z,4.78
2022-12-08T03:40:09.243Z,4.83
2022-12-08T03:46:48.571Z,4.92
2022-12-08T03:53:52.516Z,4.91
2022-12-08T03:56:23.270Z,4.91
2022-12-08T03:58:53.260Z,4.92
2022-12-08T04:01:39.806Z,4.93
2022-12-08T04:04:23.220Z,4.93
2022-12-08T04:07:02.523Z,4.86
2022-12-08T04:09:29.504Z,4.70
2022-12-08T04:12:07.249Z,4.51
2022-12-08T04:18:34.169Z,4.04
2022-12-08T04:30:47.538Z,3.26
2022-12-08T04:40:18.321Z,2.82
2022-12-08T04:43:05.145Z,2.74
2022-12-08T04:50:17.668Z,2.60
2022-12-08T04:52:50.729Z,2.58
2022-12-08T04:55:16.990Z,2.56
2022-12-08T04:57:43.232Z,2.51
2022-12-08T05:00:10.422Z,2.42
2022-12-08T05:02:39.250Z,2.34
2022-12-08T05:05:05.835Z,2.30
2022-12-08T05:08:26.093Z,2.32
2022-12-08T05:15:05.584Z,2.29
2022-12-08T05:17:38.049Z,2.25
2022-12-08T05:20:13.774Z,2.21
2022-12-08T05:22:40.684Z,2.16
2022-12-08T05:26:03.794Z,2.14
2022-12-08T05:28:42.721Z,2.11
2022-12-08T05:31:38.380Z,2.06
2022-12-08T05:37:21.783Z,1.96
2022-12-08T05:40:51.414Z,1.93
2022-12-08T05:44:08.038Z,1.90
2022-12-08T05:46:50.924Z,1.93
2022-12-08T05:49:42.326Z,1.95
2022-12-08T05:57:16.833Z,1.87
2022-12-08T05:59:42.973Z,1.84
2022-12-08T06:02:18.446Z,1.81
2022-12-08T06:04:59.042Z,1.74
2022-12-08T06:07:48.663Z,1.65
2022-12-08T06:10:15.310Z,1.62
2022-12-08T06:18:08.452Z,1.68
2022-12-08T06:20:40.835Z,1.82
2022-12-08T06:23:06.740Z,1.95
2022-12-08T06:30:00.658Z,2.37
2022-12-08T06:32:47.404Z,2.57
2022-12-08T06:38:09.283Z,2.97
2022-12-08T06:45:09.467Z,3.45
2022-12-08T06:47:35.841Z,3.66
2022-12-08T06:50:22.892Z,3.83
2022-12-08T06:53:31.431Z,3.97
2022-12-08T06:57:23.723Z,4.11
2022-12-08T07:00:19.614Z,4.29
2022-12-08T07:03:47.211Z,4.42
2022-12-08T07:06:41.506Z,4.54
2022-12-08T07:09:20.025Z,4.62
2022-12-08T07:12:02.907Z,4.70
2022-12-08T07:14:29.402Z,4.76
2022-12-08T07:17:36.858Z,4.81
2022-12-08T07:28:53.555Z,4.51
2022-12-08T07:31:22.888Z,4.34
2022-12-08T07:33:50.729Z,4.16
2022-12-08T07:36:47.899Z,4.03
2022-12-08T07:39:41.530Z,3.83
2022-12-08T07:42:07.618Z,3.82
2022-12-08T07:49:01.196Z,3.82
2022-12-08T07:52:20.057Z,3.84
2022-12-08T07:54:52.332Z,3.89
2022-12-08T07:57:30.212Z,3.93
2022-12-08T08:00:04.965Z,3.99
2022-12-08T08:02:48.490Z,4.05
2022-12-08T08:05:20.757Z,4.11
2022-12-08T08:07:47.732Z,4.25
2022-12-08T08:10:22.809Z,4.43
2022-12-08T08:13:14.214Z,4.57
2022-12-08T08:15:44.006Z,4.72
2022-12-08T08:18:10.262Z,4.86
2022-12-08T08:20:53.669Z,4.99
2022-12-08T08:23:22.577Z,5.12
2022-12-08T08:25:51.585Z,5.20
2022-12-08T08:28:22.768Z,5.27
2022-12-08T08:30:48.896Z,5.34
2022-12-08T08:33:25.508Z,5.40
2022-12-08T08:35:51.567Z,5.39
2022-12-08T08:38:28.795Z,5.40
2022-12-08T08:40:55.242Z,5.47
2022-12-08T08:43:36.233Z,5.55
2022-12-08T08:46:06.102Z,5.66
2022-12-08T08:48:32.480Z,5.77
2022-12-08T08:51:07.383Z,5.89
2022-12-08T08:53:33.574Z,6.00
2022-12-08T08:56:02.705Z,6.08
2022-12-08T08:58:29.368Z,6.13
2022-12-08T09:00:55.841Z,6.17
2022-12-08T09:03:21.987Z,6.21
2022-12-08T09:05:48.203Z,6.26
2022-12-08T09:08:14.627Z,6.30
2022-12-08T09:10:40.703Z,6.35
2022-12-08T09:13:06.904Z,6.39
2022-12-08T09:15:33.001Z,6.45
2022-12-08T09:18:02.126Z,6.51
2022-12-08T09:20:28.864Z,6.59
2022-12-08T09:22:54.922Z,6.65
2022-12-08T09:25:29.834Z,6.71
2022-12-08T09:27:56.241Z,6.77
2022-12-08T09:30:25.394Z,6.84
2022-12-08T09:33:21.376Z,6.91
2022-12-08T09:35:47.622Z,7.04
2022-12-08T09:38:16.704Z,7.18
2022-12-08T09:40:58.650Z,7.29
2022-12-08T09:43:46.559Z,7.40
2022-12-08T09:46:17.858Z,7.51
2022-12-08T09:49:09.277Z,7.56
2022-12-08T09:51:45.780Z,7.53
2022-12-08T09:54:22.126Z,7.47
2022-12-08T09:56:56.914Z,7.42
2022-12-08T09:59:43.282Z,7.40
2022-12-08T10:02:22.808Z,7.35
2022-12-08T10:08:59.594Z,7.38
2022-12-08T10:11:44.642Z,7.39
2022-12-08T10:14:33.006Z,7.39
2022-12-08T10:17:13.210Z,7.41
2022-12-08T10:19:41.844Z,7.41
2022-12-08T10:22:23.964Z,7.39
2022-12-08T10:25:12.296Z,7.37
2022-12-08T10:27:56.596Z,7.34
2022-12-08T10:30:38.996Z,7.32
2022-12-08T10:33:13.840Z,7.30
2022-12-08T10:35:47.238Z,7.35
2022-12-08T10:38:34.398Z,7.43
2022-12-08T10:41:01.178Z,7.48
2022-12-08T10:43:27.544Z,7.51
2022-12-08T10:45:54.174Z,7.53
2022-12-08T10:48:31.050Z,7.55
2022-12-08T10:51:01.072Z,7.58
2022-12-08T10:53:53.241Z,7.59
2022-12-08T10:56:24.657Z,7.62
2022-12-08T10:59:05.885Z,7.65
2022-12-08T11:01:55.730Z,7.68
2022-12-08T11:08:07.815Z,7.75
2022-12-08T11:10:43.986Z,7.78
2022-12-08T11:13:22.062Z,7.82
2022-12-08T11:15:52.432Z,7.85
2022-12-08T11:18:30.607Z,7.86
2022-12-08T11:21:07.248Z,7.86
2022-12-08T11:23:36.715Z,7.86
2022-12-08T11:26:31.145Z,7.86
2022-12-08T11:29:35.360Z,7.87
2022-12-08T11:32:12.767Z,7.88
2022-12-08T11:35:10.159Z,7.89
2022-12-08T11:37:41.806Z,7.93
2022-12-08T11:40:28.058Z,7.95
2022-12-08T11:43:22.966Z,7.98
2022-12-08T11:46:08.842Z,8.00
2022-12-08T11:49:06.900Z,7.97
2022-12-08T11:52:17.236Z,7.97
2022-12-08T11:55:33.767Z,7.85
2022-12-08T11:58:38.867Z,7.85
2022-12-08T12:01:05.106Z,7.81
2022-12-08T12:03:40.248Z,7.80
2022-12-08T12:12:37.983Z,7.84
2022-12-08T12:15:49.456Z,7.87
2022-12-08T12:21:40.249Z,7.85
2022-12-08T12:24:49.988Z,7.82
2022-12-08T12:27:50.566Z,7.81
2022-12-08T12:30:30.291Z,7.79
2022-12-08T12:33:09.270Z,7.73
2022-12-08T12:35:43.291Z,7.69
2022-12-08T12:42:05.261Z,7.61
2022-12-08T12:44:40.023Z,7.59
2022-12-08T12:47:12.192Z,7.59
2022-12-08T12:49:38.748Z,7.63
2022-12-08T12:58:56.563Z,7.74
2022-12-08T13:01:26.407Z,7.74
2022-12-08T13:04:19.638Z,7.73
2022-12-08T13:07:39.143Z,7.73
2022-12-08T13:14:06.105Z,7.68
2022-12-08T13:16:47.433Z,7.66
2022-12-08T13:19:15.807Z,7.67
2022-12-08T13:21:50.270Z,7.71
2022-12-08T13:24:34.692Z,7.77
2022-12-08T13:27:04.304Z,7.82
2022-12-08T13:29:31.946Z,7.84
2022-12-08T13:31:59.591Z,7.83
2022-12-08T13:34:57.707Z,7.83
2022-12-08T13:37:53.870Z,7.85
2022-12-08T13:40:29.891Z,7.86
2022-12-08T13:43:32.136Z,7.85
2022-12-08T13:59:30.823Z,7.75
2022-12-08T14:02:28.615Z,7.74
2022-12-08T14:05:18.024Z,7.73
2022-12-08T14:07:47.661Z,7.72
2022-12-08T14:10:21.317Z,7.72
2022-12-08T14:12:54.899Z,7.72
2022-12-08T14:15:21.819Z,7.72
2022-12-08T14:17:56.089Z,7.70
2022-12-08T14:20:26.792Z,7.70
2022-12-08T14:22:53.201Z,7.70
2022-12-08T14:25:20.736Z,7.71
2022-12-08T14:27:47.957Z,7.73
2022-12-08T14:30:14.234Z,7.74
2022-12-08T14:32:55.124Z,7.74
2022-12-08T14:35:23.801Z,7.74
2022-12-08T14:37:53.943Z,7.73
2022-12-08T14:40:28.088Z,7.72
2022-12-08T14:43:22.170Z,7.70
2022-12-08T14:48:37.569Z,7.66
2022-12-08T14:59:10.784Z,7.47
2022-12-08T15:07:00.716Z,7.40
2022-12-08T15:13:47.271Z,7.30
2022-12-08T15:16:36.884Z,7.23
2022-12-08T15:19:27.423Z,7.14
2022-12-08T15:21:59.382Z,7.06
2022-12-08T15:24:31.244Z,6.99
2022-12-08T15:30:33.864Z,6.88
2022-12-08T15:37:15.104Z,6.65
2022-12-08T15:39:41.600Z,6.55
2022-12-08T15:42:12.092Z,6.43
2022-12-08T15:44:38.426Z,6.30
2022-12-08T15:59:20.125Z,5.72
2022-12-08T16:01:53.226Z,5.62
2022-12-08T16:12:05.433Z,5.18
2022-12-08T16:16:00.375Z,5.03
2022-12-08T16:19:37.714Z,4.96
2022-12-08T16:23:07.959Z,4.95
2022-12-08T16:25:36.367Z,4.92
2022-12-08T16:28:45.390Z,4.90
2022-12-08T16:30:58.950Z,4.92
2022-12-08T16:33:25.456Z,4.94
2022-12-08T16:35:56.989Z,4.94
2022-12-08T16:38:35.070Z,4.91
2022-12-08T16:41:22.344Z,4.93
2022-12-08T16:43:53.636Z,4.96
2022-12-08T16:46:28.882Z,4.97
2022-12-08T16:48:58.246Z,4.97
2022-12-08T16:51:27.031Z,4.99
2022-12-08T16:54:15.198Z,5.00
2022-12-08T17:00:52.993Z,4.85
2022-12-08T17:03:20.169Z,4.79
2022-12-08T17:05:47.201Z,4.76
2022-12-08T17:08:13.548Z,4.78
2022-12-08T17:10:40.242Z,4.85
2022-12-08T17:13:06.352Z,4.92
2022-12-08T17:15:32.485Z,4.97
2022-12-08T17:17:58.507Z,4.99
2022-12-08T17:20:27.315Z,5.04
2022-12-08T17:22:55.773Z,5.07
2022-12-08T17:25:21.794Z,5.09
2022-12-08T17:27:47.760Z,5.12
2022-12-08T17:30:15.080Z,5.16
2022-12-08T17:32:42.121Z,5.24
2022-12-08T17:35:08.895Z,5.33
2022-12-08T17:37:35.185Z,5.39
2022-12-08T17:40:01.502Z,5.42
2022-12-08T17:42:27.721Z,5.45
2022-12-08T17:44:54.022Z,5.45
2022-12-08T17:47:20.208Z,5.46
2022-12-08T17:49:46.206Z,5.47
2022-12-08T17:52:12.249Z,5.49
2022-12-08T17:54:38.508Z,5.54
2022-12-08T17:57:04.884Z,5.57
2022-12-08T17:59:32.039Z,5.56
2022-12-08T18:01:58.901Z,5.59
2022-12-08T18:04:27.050Z,5.61
2022-12-08T18:06:54.265Z,5.62
2022-12-08T18:09:20.906Z,5.64
2022-12-08T18:11:47.081Z,5.69
2022-12-08T18:14:13.602Z,5.71
2022-12-08T18:16:42.950Z,5.72
2022-12-08T18:19:11.012Z,5.73
2022-12-08T18:21:37.496Z,5.74
2022-12-08T18:24:04.265Z,5.74
2022-12-08T18:26:30.351Z,5.73
2022-12-08T18:28:57.196Z,5.73
2022-12-08T18:31:23.708Z,5.71
2022-12-08T18:33:51.350Z,5.71
2022-12-08T18:36:23.276Z,5.72
2022-12-08T18:38:50.422Z,5.76
2022-12-08T18:41:20.368Z,5.82
2022-12-08T18:43:46.453Z,5.87
2022-12-08T18:46:13.756Z,5.90
2022-12-08T18:48:47.663Z,5.90
2022-12-08T18:51:19.324Z,5.89
2022-12-08T18:53:45.915Z,5.90
2022-12-08T18:56:30.143Z,5.92
2022-12-08T18:59:03.241Z,5.98
2022-12-08T19:01:35.407Z,6.03
2022-12-08T19:04:27.391Z,6.08
2022-12-08T19:06:50.511Z,6.13
2022-12-08T19:09:16.709Z,6.14
2022-12-08T19:11:42.662Z,6.15
2022-12-08T19:14:10.023Z,6.15
2022-12-08T19:16:36.447Z,6.12
2022-12-08T19:19:03.825Z,6.11
2022-12-08T19:24:44.174Z,6.17
2022-12-08T19:27:13.480Z,6.19
2022-12-08T19:29:42.703Z,6.19
2022-12-08T19:32:12.071Z,6.18
2022-12-08T19:34:38.487Z,6.17
2022-12-08T19:37:06.070Z,6.16
2022-12-08T19:39:50.354Z,6.15
2022-12-08T19:42:40.370Z,6.16
2022-12-08T19:45:14.499Z,6.20
2022-12-08T19:47:42.112Z,6.21
2022-12-08T19:50:28.759Z,6.23
2022-12-08T19:52:55.580Z,6.25
2022-12-08T19:55:23.445Z,6.24
2022-12-08T19:57:54.174Z,6.18
2022-12-08T20:00:20.741Z,6.13
2022-12-08T20:02:51.938Z,6.10
2022-12-08T20:05:21.120Z,6.10
2022-12-08T20:11:28.756Z,6.12
2022-12-08T20:13:55.548Z,6.13
2022-12-08T20:16:23.313Z,6.15
2022-12-08T20:18:49.788Z,6.15
2022-12-08T20:21:16.397Z,6.16
2022-12-08T20:23:42.657Z,6.18
2022-12-08T20:26:11.875Z,6.25
2022-12-08T20:28:37.928Z,6.31
2022-12-08T20:31:04.564Z,6.33
2022-12-08T20:33:30.933Z,6.29
2022-12-08T20:36:03.450Z,6.26
2022-12-08T20:38:30.197Z,6.23
2022-12-08T20:40:57.725Z,6.22
2022-12-08T20:43:25.015Z,6.23
2022-12-08T20:45:51.053Z,6.29
2022-12-08T20:48:17.193Z,6.35
2022-12-08T20:50:43.448Z,6.40
2022-12-08T20:53:09.531Z,6.42
2022-12-08T20:55:35.737Z,6.44
2022-12-08T20:58:01.961Z,6.46
2022-12-08T21:00:28.196Z,6.46
2022-12-08T21:02:56.724Z,6.45
2022-12-08T21:05:23.499Z,6.44
2022-12-08T21:07:49.724Z,6.46
2022-12-08T21:10:15.907Z,6.49
2022-12-08T21:12:42.143Z,6.51
2022-12-08T21:15:10.797Z,6.52
2022-12-08T21:17:36.937Z,6.53
2022-12-08T21:20:03.872Z,6.53
2022-12-08T21:22:30.324Z,6.54
2022-12-08T21:24:56.357Z,6.54
2022-12-08T21:27:22.513Z,6.57
2022-12-08T21:29:48.587Z,6.61
2022-12-08T21:32:14.624Z,6.64
2022-12-08T21:34:43.653Z,6.67
2022-12-08T21:37:17.088Z,6.69
2022-12-08T21:45:16.228Z,6.58
2022-12-08T21:47:43.289Z,6.52
2022-12-08T21:50:11.145Z,6.50
2022-12-08T21:52:43.030Z,6.48
2022-12-08T21:55:10.426Z,6.47
2022-12-08T21:57:36.507Z,6.46
2022-12-08T22:00:03.463Z,6.44
2022-12-08T22:02:30.576Z,6.43
2022-12-08T22:04:56.920Z,6.43
2022-12-08T22:07:23.124Z,6.43
2022-12-08T22:09:49.239Z,6.44
2022-12-08T22:12:16.158Z,6.47
2022-12-08T22:14:43.164Z,6.45
2022-12-08T22:17:09.590Z,6.46
2022-12-08T22:19:35.872Z,6.45
2022-12-08T22:22:02.267Z,6.42
2022-12-08T22:24:31.291Z,6.42
2022-12-08T22:26:57.545Z,6.42
2022-12-08T22:29:23.444Z,6.43
2022-12-08T22:31:49.838Z,6.43
2022-12-08T22:34:15.927Z,6.45
2022-12-08T22:36:42.189Z,6.47
2022-12-08T22:39:09.207Z,6.47
2022-12-08T22:41:35.279Z,6.46
2022-12-08T22:44:04.972Z,6.45
2022-12-08T22:46:30.995Z,6.43
2022-12-08T22:48:57.415Z,6.42
2022-12-08T22:51:23.478Z,6.44
2022-12-08T22:53:50.145Z,6.46
2022-12-08T22:56:17.064Z,6.46
2022-12-08T22:58:43.909Z,6.46
2022-12-08T23:01:42.514Z,6.47
2022-12-08T23:04:46.606Z,6.46
2022-12-08T23:07:25.551Z,6.44
2022-12-08T23:14:23.284Z,6.48
2022-12-08T23:21:27.612Z,6.44
2022-12-08T23:24:36.218Z,6.37
2022-12-08T23:33:47.845Z,6.32
2022-12-08T23:36:15.138Z,6.33
2022-12-08T23:38:42.268Z,6.35
2022-12-08T23:41:12.351Z,6.34
2022-12-08T23:43:43.722Z,6.33
2022-12-08T23:46:09.969Z,6.32
2022-12-08T23:48:36.143Z,6.35
2022-12-08T23:51:02.620Z,6.39
2022-12-08T23:53:29.859Z,6.40
2022-12-08T23:56:06.816Z,6.41
2022-12-08T23:58:34.031Z,6.41
